Date,TemperatureHighF,TemperatureAvgF,TemperatureLowF,DewpointHighF,DewpointAvgF,DewpointLowF,HumidityHigh,HumidityAvg,HumidityLow,PressureMaxIn,PressureMinIn,WindSpeedMaxMPH,WindSpeedAvgMPH,GustSpeedMaxMPH,PrecipitationSumIn
2013-1-1,26.8,26.7,26.6,26.6,13.3,0.0,100,100,100,0.00,40.00,18,16,38,0.00
2013-1-2,6.6,6.6,6.6,0.0,0.0,0.0,100,100,100,0.00,40.00,4,4,11,0.00
2013-1-3,-5.5,-5.5,-5.5,0.0,0.0,0.0,100,100,100,0.00,40.00,4,4,14,0.00
2013-1-4,18.2,18.2,18.2,0.0,0.0,0.0,100,100,100,0.00,40.00,4,4,13,0.00
2013-1-5,26.9,26.5,26.0,0.0,0.0,0.0,100,100,100,0.00,40.00,15,12,32,0.00
2013-1-6,29.0,18.6,18.6,0.0,0.0,0.0,100,100,100,19.99,19.99,14,0,31,0.00
2013-1-7,30.9,30.9,30.9,0.0,0.0,0.0,100,100,100,19.99,19.99,4,3,15,0.00
2013-1-8,21.0,21.0,21.0,0.0,0.0,0.0,100,100,100,0.00,40.00,3,3,12,0.00
2013-1-9,34.9,21.2,17.9,0.0,0.0,0.0,100,100,100,19.99,19.99,12,2,27,0.00
2013-1-10,38.9,34.5,34.5,0.0,0.0,0.0,100,100,100,20.00,19.99,24,13,56,0.00
2013-1-11,35.3,24.6,24.6,0.0,0.0,0.0,100,100,100,19.99,19.99,17,2,37,0.00
2013-1-13,38.1,38.1,38.1,0.0,0.0,0.0,100,100,100,0.00,40.00,1,1,5,0.00
2013-1-14,39.2,37.5,37.5,0.0,0.0,0.0,100,100,100,20.00,19.99,4,0,20,0.00
2013-1-15,37.7,33.1,28.5,0.0,0.0,0.0,100,100,100,0.00,40.00,6,6,16,0.00
2013-1-16,25.6,25.6,25.6,0.0,0.0,0.0,100,100,100,0.00,40.00,1,1,7,0.00
2013-1-17,26.5,26.5,26.5,0.0,0.0,0.0,100,100,100,19.99,19.99,13,13,27,0.00
2013-1-18,13.3,11.5,11.5,0.0,0.0,0.0,100,100,100,19.99,19.99,3,3,15,0.00
2013-1-19,16.3,10.2,10.2,0.0,0.0,0.0,100,100,100,20.00,20.00,7,2,20,0.00
2013-1-20,31.2,31.2,31.2,0.0,0.0,0.0,100,100,100,0.00,40.00,0,0,3,0.00
2013-1-21,13.7,13.7,13.7,0.0,0.0,0.0,100,100,100,0.00,40.00,15,15,35,0.00
2013-1-22,19.9,17.3,14.7,0.0,0.0,0.0,100,100,100,20.00,19.99,14,2,40,0.00
2013-1-23,3.3,3.3,3.3,0.0,0.0,0.0,100,100,100,0.00,40.00,6,6,17,0.00
2013-1-24,2.7,-6.9,-6.9,0.0,0.0,0.0,100,100,100,19.99,19.99,13,3,33,0.00
2013-1-25,-0.9,-0.9,-0.9,0.0,0.0,0.0,100,100,100,0.00,40.00,8,8,24,0.00
2013-1-26,6.5,6.5,6.5,0.0,0.0,0.0,100,100,100,0.00,40.00,3,3,6,0.00
2013-1-27,10.8,4.4,4.4,0.0,0.0,0.0,100,100,100,19.99,19.99,8,5,23,0.00
2013-1-28,17.3,11.5,11.5,0.0,0.0,0.0,100,100,100,19.99,19.99,11,1,27,0.00
2013-1-29,11.5,11.5,11.5,0.0,0.0,0.0,100,100,100,0.00,40.00,1,1,5,0.00
2013-1-30,44.0,41.5,38.7,44.0,41.5,38.7,100,100,100,20.00,20.00,4,1,13,0.00
2013-1-31,48.6,33.8,21.1,48.6,33.8,21.1,100,100,100,20.00,19.99,32,15,52,0.00
2013-2-1,21.2,15.9,10.4,21.2,15.9,10.4,100,100,100,20.00,20.00,23,10,38,0.00
2013-2-2,18.9,13.4,5.5,18.9,13.4,5.5,100,100,100,20.00,20.00,11,3,26,0.00
2013-2-3,22.9,16.2,7.9,22.9,16.2,7.9,100,100,100,19.99,19.99,7,1,11,0.00
2013-2-4,19.2,14.7,10.2,19.2,14.7,10.2,100,100,100,20.00,19.99,32,9,40,0.00
2013-2-5,22.8,14.7,6.1,22.8,14.7,6.1,100,100,100,19.99,19.99,8,2,18,0.00
2013-2-6,27.2,20.1,10.8,27.2,20.1,10.8,100,100,100,19.99,19.99,14,4,24,0.00
2013-2-7,19.1,12.7,4.9,19.1,12.7,4.9,100,100,100,19.99,19.99,9,3,16,0.00
2013-2-8,17.7,15.7,14.4,17.7,15.7,14.4,100,100,100,19.99,19.99,8,2,23,0.00
2013-2-9,16.0,9.6,5.5,16.0,9.6,5.5,100,100,100,19.99,19.99,18,8,30,0.00
2013-2-10,30.0,15.2,3.6,30.0,15.2,3.6,100,100,100,20.00,19.99,10,4,19,0.00
2013-2-11,33.9,24.5,17.1,33.9,24.5,17.1,100,100,100,19.99,19.99,16,3,30,0.00
2013-2-12,33.4,30.5,27.3,33.4,30.5,27.3,100,100,100,20.00,19.99,27,12,39,0.00
2013-2-13,32.3,27.3,24.2,32.3,27.3,24.2,100,100,100,19.99,19.99,17,4,23,0.00
2013-2-14,36.2,27.8,21.9,36.2,27.8,21.9,100,100,100,20.00,19.99,9,3,15,0.00
2013-2-15,39.5,30.8,22.8,39.5,30.8,22.8,100,100,100,19.99,19.99,15,4,31,0.00
2013-2-16,30.5,24.6,16.1,30.5,24.6,16.1,100,100,100,20.00,19.99,14,5,16,0.00
2013-2-17,15.7,10.5,5.0,15.7,10.5,5.0,100,100,100,19.99,19.99,21,10,34,0.00
2013-2-18,22.4,11.6,1.4,22.4,11.6,1.4,100,100,100,20.00,19.99,15,8,31,0.00
2013-2-19,33.6,24.7,14.1,33.6,24.7,14.1,100,100,100,19.99,19.99,8,2,25,0.00
2013-2-20,31.5,21.9,17.4,31.5,21.9,17.4,100,100,100,19.99,19.99,25,10,36,0.00
2013-2-21,21.1,15.4,9.8,21.1,15.4,9.8,100,100,100,19.99,19.99,22,9,33,0.00
2013-2-22,33.4,25.5,15.4,33.4,25.5,15.4,100,100,100,19.99,19.99,11,2,23,0.00
2013-2-23,28.0,26.8,25.0,28.0,26.8,25.0,100,100,100,19.99,19.99,11,3,19,0.00
2013-2-24,33.5,29.5,26.5,33.5,29.5,26.5,100,100,100,20.00,19.99,7,1,9,0.00
2013-2-25,32.3,28.3,25.7,32.3,28.3,25.7,100,100,100,20.00,19.99,7,3,12,0.00
2013-2-26,33.1,29.8,24.8,33.1,29.8,24.8,100,100,100,19.99,19.99,6,2,20,0.00
2013-2-27,31.9,29.3,27.2,31.9,29.3,27.2,100,100,100,20.00,20.00,8,2,24,0.00
2013-2-28,36.4,31.5,26.9,36.4,31.5,26.9,100,100,100,20.00,20.00,4,1,6,0.00
2013-3-1,31.8,29.2,26.2,31.8,29.2,26.2,100,100,100,20.00,19.99,10,4,18,0.00
2013-3-2,29.2,26.1,21.4,29.2,26.1,21.4,100,100,100,19.99,19.99,10,4,16,0.00
2013-3-3,25.5,22.5,18.6,25.5,22.5,18.6,100,100,100,19.99,19.99,17,7,21,0.00
2013-3-4,27.8,22.5,18.6,27.8,22.5,18.6,100,100,100,19.99,19.99,14,8,34,0.00
2013-3-5,35.9,27.1,20.6,35.9,27.1,20.6,100,100,100,19.99,19.99,11,5,22,0.00
2013-3-6,31.0,29.1,26.5,31.0,29.1,26.5,100,100,100,19.99,19.99,17,4,26,0.00
2013-3-7,32.6,27.9,25.6,32.6,27.9,25.6,100,100,100,20.00,19.99,10,4,15,0.00
2013-3-8,35.9,29.0,24.4,35.9,29.0,24.4,100,100,100,19.99,19.99,17,6,20,0.00
2013-3-9,45.5,33.6,22.8,45.5,33.6,22.8,100,100,100,19.99,19.99,9,5,15,0.00
2013-3-10,46.0,36.6,26.7,46.0,36.6,26.7,100,100,100,0.00,40.00,12,2,18,0.00
2013-3-11,38.9,35.6,30.1,38.9,35.6,30.1,100,100,100,20.00,19.99,14,3,18,0.00
2013-3-12,44.5,40.4,33.3,44.5,40.4,33.3,100,100,100,19.99,19.99,18,6,26,0.00
2013-3-13,37.9,32.7,29.0,37.9,32.7,29.0,100,100,100,19.99,19.99,13,4,23,0.00
2013-3-14,29.2,21.0,13.1,29.2,21.0,13.1,100,100,100,19.99,19.99,21,7,28,0.00
2013-3-15,30.5,21.1,9.8,30.5,21.1,9.8,100,100,100,19.99,19.99,22,8,28,0.00
2013-3-16,27.8,22.5,15.6,27.8,22.5,15.6,100,100,100,19.99,19.99,14,4,23,0.00
2013-3-17,26.1,18.8,12.7,26.1,18.8,12.7,100,100,100,19.99,19.99,17,6,26,0.00
2013-3-18,28.6,20.5,8.9,28.6,20.5,8.9,100,100,100,19.99,19.99,15,2,21,0.00
2013-3-19,27.0,24.2,21.7,27.0,24.2,21.7,100,100,100,19.99,19.99,9,2,21,0.00
2013-3-20,29.9,23.4,18.7,29.9,23.4,18.7,100,100,100,19.99,19.99,17,8,27,0.00
2013-3-21,33.3,23.7,17.3,33.3,23.7,17.3,100,100,100,19.99,19.99,11,4,19,0.00
2013-3-22,31.2,23.4,16.3,31.2,23.4,16.3,100,100,100,20.00,20.00,11,5,23,0.00
2013-3-23,33.7,26.9,20.6,33.7,26.9,20.6,100,100,100,20.00,20.00,23,9,39,0.00
2013-3-24,37.0,29.6,25.2,37.0,29.6,25.2,100,100,100,20.00,20.00,12,4,20,0.00
2013-3-25,36.6,30.6,23.7,36.6,30.6,23.7,100,100,100,19.99,19.99,11,2,17,0.00
2013-3-26,40.8,32.4,26.7,40.8,32.4,26.7,100,100,100,19.99,19.99,9,4,19,0.00
2013-3-27,41.7,34.5,26.8,41.7,34.5,26.8,100,100,100,20.00,19.99,12,4,21,0.00
2013-3-28,41.3,35.2,30.4,41.3,35.2,30.4,100,100,100,20.00,19.99,13,4,21,0.00
2013-3-29,42.7,36.7,31.7,42.7,36.7,31.7,100,100,100,19.99,19.99,14,5,21,0.00
2013-3-30,33.1,31.4,30.1,33.1,31.4,30.1,100,100,100,19.99,19.99,4,2,10,0.00
2013-3-31,48.4,38.4,29.2,48.4,38.4,29.2,100,100,100,19.99,19.99,13,3,22,0.00
2013-4-1,42.9,33.2,24.4,42.9,33.2,24.4,100,100,100,20.00,20.00,21,7,47,0.00
2013-4-2,29.0,24.1,19.6,29.0,24.1,19.6,100,100,100,19.99,19.99,24,12,46,0.00
2013-4-3,21.9,20.9,19.7,21.9,20.9,19.7,100,100,100,19.99,19.99,20,11,30,0.00
2013-4-4,43.7,33.4,20.8,43.7,33.4,20.8,100,100,100,19.99,19.99,13,6,21,0.00
2013-4-5,46.9,36.5,28.2,46.9,36.5,28.2,100,100,100,19.99,19.99,13,4,20,0.00
2013-4-6,35.9,27.7,19.7,35.9,27.7,19.7,100,100,100,19.99,19.99,16,6,27,0.00
2013-4-7,50.7,36.6,26.5,50.7,36.6,26.5,100,100,100,19.99,19.99,29,4,30,0.00
2013-4-8,52.4,44.3,37.2,52.4,44.3,37.2,100,100,100,19.99,19.99,16,4,21,0.00
2013-4-9,55.6,46.3,38.9,55.6,46.3,38.9,100,100,100,20.00,20.00,12,4,26,0.00
2013-4-10,48.1,42.8,39.0,48.1,42.8,39.0,100,100,100,19.99,19.99,5,2,12,0.00
2013-4-11,38.9,37.9,36.9,38.9,37.9,36.9,100,100,100,19.99,19.99,3,2,7,0.00
2013-4-12,30.5,27.7,25.3,30.5,27.7,25.3,100,100,100,19.99,19.99,5,2,23,0.00
2013-4-13,43.9,35.4,28.5,43.9,35.4,28.5,100,100,100,19.99,19.99,12,2,20,0.00
2013-4-14,40.4,35.5,31.4,40.4,35.5,31.4,100,100,100,19.99,19.99,22,7,26,0.00
2013-4-15,54.4,41.6,29.0,54.4,41.6,29.0,100,100,100,19.99,19.99,8,2,15,0.00
2013-4-16,56.4,46.9,36.4,56.4,46.9,36.4,100,100,100,19.99,19.99,20,6,31,0.00
2013-4-17,53.9,45.6,38.0,53.9,45.6,38.0,100,100,100,19.99,19.99,13,4,31,0.00
2013-4-18,39.0,37.1,35.5,39.0,37.1,35.5,100,100,100,20.00,19.99,2,1,5,0.00
2013-4-19,66.5,56.0,46.0,66.5,56.0,46.0,100,100,100,19.99,19.99,18,5,53,0.00
2013-4-20,47.1,39.4,30.6,47.1,39.4,30.6,100,100,100,20.00,19.99,25,10,36,0.00
2013-4-21,30.1,28.7,26.8,30.1,28.7,26.8,100,100,100,19.99,19.99,11,6,26,0.00
2013-4-22,48.9,38.0,29.2,48.9,38.0,29.2,100,100,100,19.99,19.99,18,3,27,0.00
2013-4-23,31.1,28.8,27.7,31.1,28.8,27.7,100,100,100,20.00,19.99,3,1,9,0.00
2013-4-24,71.2,53.1,34.9,71.2,53.1,34.9,100,100,100,19.99,19.99,14,3,19,0.00
2013-4-25,54.7,48.3,40.0,54.7,48.3,40.0,100,100,100,19.99,19.99,29,11,46,0.00
2013-4-26,39.3,36.7,35.4,39.3,36.7,35.4,100,100,100,20.00,20.00,1,0,5,0.00
2013-4-27,59.0,48.5,35.9,59.0,48.5,35.9,100,100,100,19.99,19.99,15,3,18,0.00
2013-4-28,64.6,53.9,41.5,64.6,53.9,41.5,100,100,100,20.00,19.99,7,2,16,0.00
2013-4-29,61.6,52.0,43.3,61.6,52.0,43.3,100,100,100,20.00,19.99,14,3,25,0.00
2013-4-30,65.9,56.6,46.5,65.9,56.6,46.5,100,100,100,19.99,19.99,8,1,18,0.00
2013-5-1,70.2,58.6,44.7,70.2,58.6,44.7,100,100,100,20.00,20.00,7,1,15,0.00
2013-5-2,74.4,60.4,47.6,74.4,60.4,47.6,100,100,100,20.00,19.99,9,2,21,0.00
2013-5-3,63.2,51.6,38.7,63.2,51.6,38.7,100,100,100,19.99,19.99,12,2,20,0.00
2013-5-4,68.0,57.7,46.6,68.0,57.7,46.6,100,100,100,19.99,19.99,11,2,19,0.00
2013-5-5,68.0,55.0,39.5,68.0,55.0,39.5,100,100,100,19.99,19.99,9,2,17,0.00
2013-5-6,70.3,57.5,40.2,70.3,57.5,40.2,100,100,100,19.99,19.99,6,1,13,0.00
2013-5-7,75.2,63.6,48.7,75.2,63.6,48.7,100,100,100,19.99,19.99,12,2,16,0.00
2013-5-8,67.6,59.5,52.5,67.6,59.5,52.5,100,100,100,20.00,19.99,10,2,24,0.00
2013-5-9,61.4,56.8,53.1,61.4,56.8,53.1,100,100,100,20.00,19.99,8,1,14,0.00
2013-5-10,71.3,62.0,52.7,71.3,62.0,52.7,100,100,100,19.99,19.99,11,2,15,0.00
2013-5-11,63.0,58.2,53.8,63.0,58.2,53.8,100,100,100,19.99,19.99,11,2,17,0.00
2013-5-12,57.4,49.6,38.8,57.4,49.6,38.8,100,100,100,20.00,19.99,19,6,32,0.00
2013-5-13,45.5,38.9,34.3,45.5,38.9,34.3,100,100,100,19.99,19.99,27,9,34,0.00
2013-5-14,49.7,42.8,33.9,49.7,42.8,33.9,100,100,100,20.00,20.00,8,3,21,0.00
2013-5-15,54.7,44.3,35.5,54.7,44.3,35.5,100,100,100,19.99,19.99,15,3,27,0.00
2013-5-16,69.9,58.0,45.6,69.9,58.0,45.6,100,100,100,19.99,19.99,29,8,40,0.00
2013-5-17,60.1,50.6,41.3,60.1,50.6,41.3,100,100,100,19.99,19.99,10,3,19,0.00
2013-5-18,68.0,57.5,44.2,68.0,57.5,44.2,100,100,100,19.99,19.99,9,2,19,0.00
2013-5-19,63.2,53.6,46.4,63.2,53.6,46.4,100,100,100,20.00,19.99,11,2,18,0.00
2013-5-20,68.2,59.6,50.9,68.2,59.6,50.9,100,100,100,19.99,19.99,9,2,20,0.00
2013-5-21,59.1,58.3,57.1,59.1,58.3,57.1,100,100,100,19.99,19.99,3,0,7,0.00
2013-5-22,50.2,49.6,48.9,50.2,49.6,48.9,100,100,100,19.99,19.99,5,1,15,0.00
2013-5-23,69.8,63.4,57.6,69.8,63.4,57.6,100,100,100,19.99,19.99,10,3,19,0.00
2013-5-24,60.7,48.8,40.3,60.7,48.8,40.3,100,100,100,20.00,19.99,13,4,27,0.00
2013-5-25,40.3,37.8,33.1,40.3,37.8,33.1,100,100,100,20.00,20.00,12,5,23,0.00
2013-5-26,47.9,40.1,33.5,47.9,40.1,33.5,100,100,100,19.99,19.99,21,6,29,0.00
2013-5-27,62.8,50.4,37.0,62.8,50.4,37.0,100,100,100,20.00,19.99,10,3,26,0.00
2013-5-28,65.3,56.5,44.1,65.3,56.5,44.1,100,100,100,20.00,20.00,10,2,16,0.00
2013-5-29,59.1,55.0,51.7,59.1,55.0,51.7,100,100,100,20.00,19.99,7,2,16,0.00
2013-5-30,79.8,69.7,58.6,79.8,69.7,58.6,100,100,100,19.99,19.99,14,4,23,0.00
2013-5-31,84.4,75.0,63.9,84.4,75.0,63.9,100,100,100,19.99,19.99,16,4,21,0.00
2013-6-1,84.7,76.4,67.6,84.7,76.4,67.6,100,100,100,20.00,19.99,14,4,23,0.00
2013-6-2,83.5,69.6,62.3,83.5,69.6,62.3,100,100,100,19.99,19.99,14,3,37,0.00
2013-6-3,68.9,61.2,50.1,68.9,61.2,50.1,100,100,100,19.99,19.99,15,4,20,0.00
2013-6-4,63.6,53.4,43.6,63.6,53.4,43.6,100,100,100,20.00,19.99,17,4,25,0.00
2013-6-5,67.2,57.7,46.1,67.2,57.7,46.1,100,100,100,20.00,19.99,10,2,17,0.00
2013-6-6,66.0,57.9,50.1,66.0,57.9,50.1,100,100,100,20.00,19.99,8,2,19,0.00
2013-6-7,52.0,48.1,46.7,52.0,48.1,46.7,100,100,100,20.00,19.99,4,1,18,0.00
2013-6-8,61.2,55.0,47.6,61.2,55.0,47.6,100,100,100,19.99,19.99,13,4,29,0.00
2013-6-9,68.6,60.9,53.9,68.6,60.9,53.9,100,100,100,20.00,20.00,13,3,17,0.00
2013-6-10,65.2,59.2,52.5,65.2,59.2,52.5,100,100,100,20.00,19.99,9,2,17,0.00
2013-6-11,54.2,52.1,50.4,54.2,52.1,50.4,100,100,100,20.00,19.99,6,1,17,0.00
2013-6-12,62.8,54.9,50.4,62.8,54.9,50.4,100,100,100,19.99,19.99,11,3,19,0.00
2013-6-13,59.3,52.8,48.8,59.3,52.8,48.8,100,100,100,19.99,19.99,6,1,15,0.00
2013-6-14,68.9,59.4,49.8,68.9,59.4,49.8,100,100,100,20.00,20.00,7,2,14,0.00
2013-6-15,69.9,60.7,48.7,69.9,60.7,48.7,100,100,100,20.00,19.99,13,3,24,0.00
2013-6-16,68.8,60.2,53.8,68.8,60.2,53.8,100,100,100,20.00,19.99,8,2,20,0.00
2013-6-17,72.4,62.1,53.8,72.4,62.1,53.8,100,100,100,19.99,19.99,11,2,23,0.00
2013-6-18,59.1,56.0,51.7,59.1,56.0,51.7,100,100,100,19.99,19.99,5,1,12,0.00
2013-6-19,65.1,56.3,46.3,65.1,56.3,46.3,100,100,100,19.99,19.99,12,3,18,0.00
2013-6-20,73.0,61.0,47.4,73.0,61.0,47.4,100,100,100,19.99,19.99,9,2,15,0.00
2013-6-21,76.2,66.5,56.7,76.2,66.5,56.7,100,100,100,20.00,19.99,8,2,15,0.00
2013-6-22,77.5,68.9,59.6,77.5,68.9,59.6,100,100,100,19.99,19.99,11,2,18,0.00
2013-6-23,83.9,70.2,62.6,83.9,70.2,62.6,100,100,100,19.99,19.99,9,2,20,0.00
2013-6-24,81.8,71.5,64.7,81.8,71.5,64.7,100,100,100,19.99,19.99,12,3,22,0.00
2013-6-25,83.0,71.6,64.0,83.0,71.6,64.0,100,100,100,19.99,19.99,10,3,36,0.00
2013-6-26,70.6,66.7,63.6,70.6,66.7,63.6,100,100,100,19.99,19.99,9,2,14,0.00
2013-6-27,75.1,66.8,61.0,75.1,66.8,61.0,100,100,100,20.00,20.00,5,1,14,0.00
2013-6-28,70.8,63.1,55.0,70.8,63.1,55.0,100,100,100,20.00,19.99,9,2,17,0.00
2013-6-29,77.8,68.6,63.6,77.8,68.6,63.6,100,100,100,19.99,19.99,12,2,19,0.00
2013-6-30,80.3,69.9,61.6,80.3,69.9,61.6,100,100,100,20.00,19.99,8,2,16,0.00
2013-7-1,71.8,67.6,63.5,71.8,67.6,63.5,100,100,100,19.99,19.99,4,0,10,0.00
2013-7-2,77.7,69.0,63.9,77.7,69.0,63.9,100,100,100,19.99,19.99,6,1,11,0.00
2013-7-3,80.3,71.3,63.3,80.3,71.3,63.3,100,100,100,19.99,19.99,8,2,15,0.00
2013-7-4,84.0,76.2,68.8,84.0,76.2,68.8,100,100,100,20.00,20.00,10,3,19,0.00
2013-7-5,84.8,75.6,68.5,84.8,75.6,68.5,100,100,100,20.00,20.00,12,4,18,0.00
2013-7-6,80.4,73.1,66.4,80.4,73.1,66.4,100,100,100,20.00,19.99,14,4,19,0.00
2013-7-7,82.9,72.5,65.8,82.9,72.5,65.8,100,100,100,19.99,19.99,4,1,13,0.00
2013-7-8,75.6,70.4,66.8,75.6,70.4,66.8,100,100,100,20.00,19.99,10,2,15,0.00
2013-7-9,77.6,68.4,64.3,77.6,68.4,64.3,100,100,100,20.00,19.99,8,1,11,0.00
2013-7-10,72.7,68.1,65.0,72.7,68.1,65.0,100,100,100,20.00,19.99,6,2,15,0.00
2013-7-11,75.9,69.3,62.5,75.9,69.3,62.5,100,100,100,20.00,19.99,6,2,17,0.00
2013-7-12,74.8,66.6,58.6,74.8,66.6,58.6,100,100,100,19.99,19.99,5,0,9,0.00
2013-7-13,71.8,65.9,60.0,71.8,65.9,60.0,100,100,100,20.00,19.99,7,1,10,0.00
2013-7-14,80.9,73.4,63.9,80.9,73.4,63.9,100,100,100,19.99,19.99,6,2,12,0.00
2013-7-15,84.4,76.0,68.6,84.4,76.0,68.6,100,100,100,19.99,19.99,11,2,16,0.00
2013-7-16,85.8,75.9,67.4,85.8,75.9,67.4,100,100,100,20.00,19.99,9,2,14,0.00
2013-7-17,87.0,78.0,68.0,87.0,78.0,68.0,100,100,100,20.00,19.99,15,4,18,0.00
2013-7-18,87.1,76.8,68.3,87.1,76.8,68.3,100,100,100,20.00,19.99,7,2,22,0.00
2013-7-19,86.8,78.8,69.2,86.8,78.8,69.2,100,100,100,20.00,19.99,22,7,34,0.00
2013-7-20,81.7,72.7,63.6,81.7,72.7,63.6,100,100,100,20.00,19.99,18,5,30,0.00
2013-7-21,76.4,68.0,61.4,76.4,68.0,61.4,100,100,100,19.99,19.99,12,2,15,0.00
2013-7-22,73.3,65.3,57.9,73.3,65.3,57.9,100,100,100,19.99,19.99,5,1,13,0.00
2013-7-23,73.4,65.4,61.8,73.4,65.4,61.8,100,100,100,19.99,19.99,6,1,16,0.00
2013-7-24,71.1,63.6,50.6,71.1,63.6,50.6,100,100,100,19.99,19.99,13,4,21,0.00
2013-7-25,67.0,57.9,45.8,67.0,57.9,45.8,100,100,100,20.00,19.99,5,1,11,0.00
2013-7-26,67.1,60.8,56.4,67.1,60.8,56.4,100,100,100,20.00,19.99,9,2,16,0.00
2013-7-27,78.2,67.1,55.2,78.2,67.1,55.2,100,100,100,20.00,19.99,7,2,15,0.00
2013-7-28,71.3,64.9,59.6,71.3,64.9,59.6,100,100,100,19.99,19.99,6,1,15,0.00
2013-7-29,75.7,67.0,59.3,75.7,67.0,59.3,100,100,100,20.00,20.00,10,2,20,0.00
2013-7-30,72.7,64.2,54.7,72.7,64.2,54.7,100,100,100,20.00,20.00,8,2,16,0.00
2013-7-31,76.3,66.6,56.4,76.3,66.6,56.4,100,100,100,19.99,19.99,6,2,16,0.00
2013-8-1,71.7,62.6,57.8,71.7,62.6,57.8,100,100,100,20.00,19.99,10,2,19,0.00
2013-8-2,73.0,65.6,60.0,73.0,65.6,60.0,100,100,100,20.00,20.00,11,4,26,0.00
2013-8-3,71.5,62.6,57.1,71.5,62.6,57.1,100,100,100,19.99,19.99,16,3,26,0.00
2013-8-4,67.3,60.2,52.4,67.3,60.2,52.4,100,100,100,20.00,19.99,11,4,20,0.00
2013-8-5,66.8,57.0,48.8,66.8,57.0,48.8,100,100,100,19.99,19.99,18,4,24,0.00
2013-8-6,71.2,61.3,51.1,71.2,61.3,51.1,100,100,100,20.00,19.99,6,1,11,0.00
2013-8-7,71.7,63.1,56.2,71.7,63.1,56.2,100,100,100,19.99,19.99,13,3,21,0.00
2013-8-8,77.1,67.8,60.5,77.1,67.8,60.5,100,100,100,19.99,19.99,6,1,15,0.00
2013-8-9,72.8,68.5,66.6,72.8,68.5,66.6,100,100,100,19.99,19.99,8,1,12,0.00
2013-8-10,71.6,65.1,55.5,71.6,65.1,55.5,100,100,100,19.99,19.99,13,4,25,0.00
2013-8-11,70.7,61.1,51.6,70.7,61.1,51.6,100,100,100,19.99,19.99,9,2,14,0.00
2013-8-12,74.1,65.0,54.9,74.1,65.0,54.9,100,100,100,20.00,19.99,12,4,18,0.00
2013-8-13,64.1,61.3,58.1,64.1,61.3,58.1,100,100,100,19.99,19.99,3,0,14,0.00
2013-8-14,64.1,56.6,50.2,64.1,56.6,50.2,100,100,100,20.00,19.99,18,6,27,0.00
2013-8-15,67.4,57.9,48.7,67.4,57.9,48.7,100,100,100,20.00,20.00,16,5,21,0.00
2013-8-16,70.7,61.7,52.3,70.7,61.7,52.3,100,100,100,19.99,19.99,12,3,19,0.00
2013-8-17,75.3,64.7,54.2,75.3,64.7,54.2,100,100,100,20.00,19.99,9,2,12,0.00
2013-8-18,72.5,64.4,57.4,72.5,64.4,57.4,100,100,100,19.99,19.99,5,1,11,0.00
2013-8-19,75.6,66.1,57.8,75.6,66.1,57.8,100,100,100,20.00,19.99,9,3,17,0.00
2013-8-20,77.9,68.6,59.1,77.9,68.6,59.1,100,100,100,19.99,19.99,9,3,17,0.00
2013-8-21,78.8,71.4,64.3,78.8,71.4,64.3,100,100,100,19.99,19.99,10,4,16,0.00
2013-8-22,79.8,70.9,63.1,79.8,70.9,63.1,100,100,100,19.99,19.99,14,3,19,0.00
2013-8-23,69.5,61.2,53.3,69.5,61.2,53.3,100,100,100,19.99,19.99,9,2,16,0.00
2013-8-24,73.7,60.7,49.4,73.7,60.7,49.4,100,100,100,19.99,19.99,4,1,11,0.00
2013-8-25,74.1,64.2,54.2,74.1,64.2,54.2,100,100,100,19.99,19.99,12,3,17,0.00
2013-8-26,72.6,66.1,59.8,72.6,66.1,59.8,100,100,100,19.99,19.99,12,4,25,0.00
2013-8-27,78.2,69.6,63.1,78.2,69.6,63.1,100,100,100,20.00,19.99,8,2,15,0.00
2013-8-28,78.5,70.1,62.0,78.5,70.1,62.0,100,100,100,19.99,19.99,5,0,10,0.00
2013-8-29,68.9,62.6,58.9,68.9,62.6,58.9,100,100,100,20.00,19.99,5,1,10,0.00
2013-8-30,77.8,68.5,59.8,77.8,68.5,59.8,100,100,100,19.99,19.99,15,3,18,0.00
2013-8-31,75.5,68.3,63.6,75.5,68.3,63.6,100,100,100,19.99,19.99,6,1,11,0.00
2013-9-1,75.6,70.3,66.0,75.6,70.3,66.0,100,100,100,19.99,19.99,5,1,9,0.00
2013-9-2,73.7,67.4,61.7,73.7,67.4,61.7,100,100,100,20.00,19.99,5,1,25,0.00
2013-9-3,67.4,62.6,57.3,67.4,62.6,57.3,100,100,100,19.99,19.99,10,4,18,0.00
2013-9-4,70.5,62.7,56.2,70.5,62.7,56.2,100,100,100,19.99,19.99,22,6,32,0.00
2013-9-5,62.0,55.9,44.6,62.0,55.9,44.6,100,100,100,19.99,19.99,9,2,30,0.00
2013-9-6,62.4,52.2,41.2,62.4,52.2,41.2,100,100,100,19.99,19.99,16,4,26,0.00
2013-9-7,64.8,57.1,50.7,64.8,57.1,50.7,100,100,100,20.00,19.99,13,4,23,0.00
2013-9-8,58.9,54.3,43.3,58.9,54.3,43.3,100,100,100,19.99,19.99,13,3,20,0.00
2013-9-9,64.7,53.2,40.6,64.7,53.2,40.6,100,100,100,20.00,19.99,6,1,13,0.00
2013-9-10,70.1,59.6,50.3,70.1,59.6,50.3,100,100,100,20.00,19.99,10,0,11,0.00
2013-9-11,85.0,75.5,64.6,85.0,75.5,64.6,100,100,100,19.99,19.99,18,6,47,0.00
2013-9-12,82.0,70.3,61.7,82.0,70.3,61.7,100,100,100,19.99,19.99,5,1,27,0.00
2013-9-13,61.8,57.0,49.2,61.8,57.0,49.2,100,100,100,19.99,19.99,7,2,14,0.00
2013-9-14,54.8,50.6,46.4,54.8,50.6,46.4,100,100,100,19.99,19.99,13,4,19,0.00
2013-9-15,61.9,53.0,43.0,61.9,53.0,43.0,100,100,100,19.99,19.99,11,4,20,0.00
2013-9-16,54.8,48.7,38.1,54.8,48.7,38.1,100,100,100,20.00,19.99,10,3,21,0.00
2013-9-17,58.5,46.9,36.4,58.5,46.9,36.4,100,100,100,19.99,19.99,11,2,13,0.00
2013-9-18,65.8,54.6,44.0,65.8,54.6,44.0,100,100,100,20.00,19.99,12,4,19,0.00
2013-9-19,71.9,60.7,50.7,71.9,60.7,50.7,100,100,100,19.99,19.99,13,3,23,0.00
2013-9-20,72.7,62.3,53.1,72.7,62.3,53.1,100,100,100,19.99,19.99,6,2,14,0.00
2013-9-21,68.6,58.7,50.3,68.6,58.7,50.3,100,100,100,19.99,19.99,16,4,23,0.00
2013-9-22,60.5,53.4,43.7,60.5,53.4,43.7,100,100,100,19.99,19.99,16,6,27,0.00
2013-9-23,52.2,44.4,38.1,52.2,44.4,38.1,100,100,100,20.00,19.99,13,4,26,0.00
2013-9-24,56.8,47.6,40.5,56.8,47.6,40.5,100,100,100,20.00,19.99,15,4,25,0.00
2013-9-25,64.0,52.1,43.5,64.0,52.1,43.5,100,100,100,19.99,19.99,13,2,18,0.00
2013-9-26,60.1,50.9,43.8,60.1,50.9,43.8,100,100,100,19.99,19.99,5,1,12,0.00
2013-9-27,58.8,51.4,46.9,58.8,51.4,46.9,100,100,100,19.99,19.99,7,2,12,0.00
2013-9-28,67.0,56.3,47.4,67.0,56.3,47.4,100,100,100,20.00,19.99,4,1,9,0.00
2013-9-29,65.9,56.2,48.3,65.9,56.2,48.3,100,100,100,19.99,19.99,4,0,10,0.00
2013-9-30,67.3,55.7,45.7,67.3,55.7,45.7,100,100,100,19.99,19.99,6,1,11,0.00
2013-10-1,70.4,59.9,51.2,70.4,59.9,51.2,100,100,100,20.00,19.99,13,2,19,0.00
2013-10-2,70.8,61.5,53.8,70.8,61.5,53.8,100,100,100,19.99,19.99,15,4,26,0.00
2013-10-3,67.5,58.5,51.3,67.5,58.5,51.3,100,100,100,19.99,19.99,13,2,14,0.00
2013-10-4,59.9,56.0,51.6,59.9,56.0,51.6,100,100,100,19.99,19.99,4,0,6,0.00
2013-10-5,59.3,56.5,54.3,59.3,56.5,54.3,100,100,100,20.00,19.99,3,0,7,0.00
2013-10-6,55.6,48.4,45.2,55.6,48.4,45.2,100,100,100,20.00,19.99,5,1,17,0.00
2013-10-7,64.0,53.3,47.1,64.0,53.3,47.1,100,100,100,19.99,19.99,21,4,33,0.00
2013-10-8,54.8,48.2,41.8,54.8,48.2,41.8,100,100,100,19.99,19.99,13,3,19,0.00
2013-10-9,55.9,46.7,37.7,55.9,46.7,37.7,100,100,100,19.99,19.99,3,0,13,0.00
2013-10-10,58.5,50.1,41.7,58.5,50.1,41.7,100,100,100,19.99,19.99,4,0,6,0.00
2013-10-11,64.5,55.9,48.9,64.5,55.9,48.9,100,100,100,20.00,19.99,3,0,7,0.00
2013-10-12,55.4,51.6,47.6,55.4,51.6,47.6,100,100,100,19.99,19.99,8,1,13,0.00
2013-10-13,58.5,49.2,43.2,58.5,49.2,43.2,100,100,100,19.99,19.99,7,2,16,0.00
2013-10-14,62.3,52.2,43.5,62.3,52.2,43.5,100,100,100,19.99,19.99,9,2,14,0.00
2013-10-15,56.8,54.4,51.5,56.8,54.4,51.5,100,100,100,19.99,19.99,7,0,9,0.00
2013-10-16,57.3,51.7,48.5,57.3,51.7,48.5,100,100,100,19.99,19.99,7,2,16,0.00
2013-10-17,61.8,54.3,47.8,61.8,54.3,47.8,100,100,100,20.00,20.00,11,2,19,0.00
2013-10-18,55.9,49.8,45.1,55.9,49.8,45.1,100,100,100,19.99,19.99,19,6,31,0.00
2013-10-19,58.3,49.2,41.1,58.3,49.2,41.1,100,100,100,20.00,19.99,12,2,22,0.00
2013-10-20,50.2,45.1,40.3,50.2,45.1,40.3,100,100,100,20.00,19.99,22,8,36,0.00
2013-10-21,58.1,48.1,38.6,58.1,48.1,38.6,100,100,100,19.99,19.99,10,2,26,0.00
2013-10-22,49.7,43.7,36.9,49.7,43.7,36.9,100,100,100,19.99,19.99,10,3,22,0.00
2013-10-23,47.7,39.4,34.3,47.7,39.4,34.3,100,100,100,19.99,19.99,11,3,15,0.00
2013-10-24,41.6,36.3,31.0,41.6,36.3,31.0,100,100,100,19.99,19.99,20,8,33,0.00
2013-10-25,41.0,35.4,32.5,41.0,35.4,32.5,100,100,100,19.99,19.99,16,5,28,0.00
2013-10-26,42.6,38.2,32.1,42.6,38.2,32.1,100,100,100,19.99,19.99,15,4,28,0.00
2013-10-27,44.5,39.2,33.6,44.5,39.2,33.6,100,100,100,20.00,19.99,16,6,34,0.00
2013-10-28,47.0,37.5,27.3,47.0,37.5,27.3,100,100,100,19.99,19.99,25,5,38,0.00
2013-10-29,40.7,31.0,23.6,40.7,31.0,23.6,100,100,100,19.99,19.99,9,2,14,0.00
2013-10-30,43.3,35.6,30.6,43.3,35.6,30.6,100,100,100,19.99,19.99,12,1,16,0.00
2013-10-31,52.1,41.2,34.3,52.1,41.2,34.3,100,100,100,19.99,19.99,8,2,11,0.00
2013-11-1,60.9,55.9,47.0,60.9,55.9,47.0,100,100,100,20.00,19.99,32,10,48,0.00
2013-11-2,53.7,45.7,35.0,53.7,45.7,35.0,100,100,100,20.00,20.00,12,3,16,0.00
2013-11-3,35.4,30.3,23.8,35.4,30.3,23.8,100,100,100,19.99,19.99,11,4,19,0.00
2013-11-4,34.9,27.2,21.3,34.9,27.2,21.3,100,100,100,19.99,19.99,6,1,11,0.00
2013-11-5,41.8,32.8,23.7,41.8,32.8,23.7,100,100,100,19.99,19.99,7,1,14,0.00
2013-11-6,56.2,43.6,33.7,56.2,43.6,33.7,100,100,100,20.00,20.00,7,1,16,0.00
2013-11-7,51.6,43.5,31.1,51.6,43.5,31.1,100,100,100,20.00,19.99,14,6,29,0.00
2013-11-8,37.7,31.5,26.7,37.7,31.5,26.7,100,100,100,20.00,20.00,15,6,30,0.00
2013-11-9,37.5,32.0,26.0,37.5,32.0,26.0,100,100,100,20.00,19.99,15,4,21,0.00
2013-11-10,43.8,34.6,29.3,43.8,34.6,29.3,100,100,100,20.00,19.99,25,5,29,0.00
2013-11-11,41.1,35.4,30.1,41.1,35.4,30.1,100,100,100,19.99,19.99,24,8,37,0.00
2013-11-12,36.7,24.7,19.5,36.7,24.7,19.5,100,100,100,19.99,19.99,20,6,33,0.00
2013-11-13,26.9,21.8,16.3,26.9,21.8,16.3,100,100,100,19.99,19.99,15,6,25,0.00
2013-11-14,40.3,33.9,27.5,40.3,33.9,27.5,100,100,100,19.99,19.99,12,5,25,0.00
2013-11-15,51.9,42.3,36.5,51.9,42.3,36.5,100,100,100,19.99,19.99,10,2,22,0.00
2013-11-16,53.0,45.0,40.0,53.0,45.0,40.0,100,100,100,19.99,19.99,8,1,14,0.00
2013-11-17,47.1,40.8,37.5,47.1,40.8,37.5,100,100,100,20.00,19.99,13,3,21,0.00
2013-11-18,54.3,47.4,37.2,54.3,47.4,37.2,100,100,100,19.99,19.99,19,9,41,0.00
2013-11-19,36.8,28.2,22.2,36.8,28.2,22.2,100,100,100,20.00,19.99,18,8,35,0.00
2013-11-20,33.0,24.6,18.5,33.0,24.6,18.5,100,100,100,20.00,19.99,10,4,15,0.00
2013-11-21,37.4,30.5,21.9,37.4,30.5,21.9,100,100,100,19.99,19.99,13,1,17,0.00
2013-11-22,41.5,36.5,33.0,41.5,36.5,33.0,100,100,100,20.00,19.99,18,2,28,0.00
2013-11-23,41.2,28.8,19.1,41.2,28.8,19.1,100,100,100,20.00,19.99,29,10,35,0.00
2013-11-24,18.4,12.7,8.7,18.4,12.7,8.7,100,100,100,19.99,19.99,17,9,35,0.00
2013-11-25,24.5,15.6,5.4,24.5,15.6,5.4,100,100,100,20.00,19.99,12,4,25,0.00
2013-11-26,29.5,26.4,23.3,29.5,26.4,23.3,100,100,100,20.00,19.99,12,2,17,0.00
2013-11-27,40.0,32.9,27.9,40.0,32.9,27.9,100,100,100,20.00,19.99,18,5,29,0.00
2013-11-28,27.5,18.1,12.7,27.5,18.1,12.7,100,100,100,19.99,19.99,29,9,40,0.00
2013-11-29,20.6,14.5,10.0,20.6,14.5,10.0,100,100,100,19.99,19.99,8,2,20,0.00
2013-11-30,21.2,15.9,7.7,21.2,15.9,7.7,100,100,100,20.00,19.99,7,2,18,0.00
2013-12-1,31.5,27.5,21.0,31.5,27.5,21.0,100,100,100,20.00,19.99,3,0,16,0.00
2013-12-2,33.4,31.2,29.1,33.4,31.2,29.1,100,100,100,19.99,19.99,1,0,6,0.00
2013-12-3,39.2,32.5,27.0,39.2,32.5,27.0,100,100,100,20.00,19.99,9,2,11,0.00
2013-12-4,35.2,29.8,25.1,35.2,29.8,25.1,100,100,100,20.00,19.99,8,3,16,0.00
2013-12-5,39.9,34.6,28.8,39.9,34.6,28.8,100,100,100,19.99,19.99,12,2,21,0.00
2013-12-6,47.1,35.5,28.7,47.1,35.5,28.7,100,100,100,19.99,19.99,9,3,16,0.00
2013-12-7,32.7,25.6,20.9,32.7,25.6,20.9,100,100,100,19.99,19.99,9,4,19,0.00
2013-12-8,24.2,21.1,18.3,24.2,21.1,18.3,100,100,100,20.00,19.99,6,2,13,0.00
2013-12-9,32.7,24.4,17.4,32.7,24.4,17.4,100,100,100,20.00,19.99,22,6,32,0.00
2013-12-10,30.9,24.7,16.1,30.9,24.7,16.1,100,100,100,19.99,19.99,25,10,38,0.00
2013-12-11,24.4,19.0,15.9,24.4,19.0,15.9,100,100,100,19.99,19.99,21,10,36,0.00
2013-12-12,15.8,11.8,7.2,15.8,11.8,7.2,100,100,100,19.99,19.99,19,6,34,0.00
2013-12-13,17.4,11.8,0.4,17.4,11.8,0.4,100,100,100,19.99,19.99,18,6,29,0.00
2013-12-14,6.7,2.0,-3.5,6.7,2.0,-3.5,100,100,100,19.99,19.99,6,1,11,0.00
2013-12-15,21.5,16.7,7.7,21.5,16.7,7.7,100,100,100,19.99,19.99,14,4,28,0.00
2013-12-16,18.7,12.8,2.6,18.7,12.8,2.6,100,100,100,19.99,19.99,23,9,33,0.00
2013-12-17,12.1,2.2,-5.7,12.1,2.2,-5.7,100,100,100,20.00,19.99,5,1,11,0.00
2013-12-18,25.6,19.3,11.6,25.6,19.3,11.6,100,100,100,20.00,19.99,10,3,20,0.00
2013-12-19,33.3,28.5,22.3,33.3,28.5,22.3,100,100,100,19.99,19.99,23,6,34,0.00
2013-12-20,42.1,36.1,31.1,42.1,36.1,31.1,100,100,100,19.99,19.99,16,3,24,0.00
2013-12-21,51.9,44.5,37.3,51.9,44.5,37.3,100,100,100,20.00,19.99,13,3,19,0.00
2013-12-22,50.5,45.1,38.1,50.5,45.1,38.1,100,100,100,19.99,19.99,8,2,20,0.00
2013-12-23,47.3,36.8,27.6,47.3,36.8,27.6,100,100,100,19.99,19.99,14,2,24,0.00
2013-12-24,27.0,19.4,10.6,27.0,19.4,10.6,100,100,100,20.00,19.99,19,6,28,0.00
2013-12-25,15.4,9.2,2.1,15.4,9.2,2.1,100,100,100,20.00,19.99,14,4,21,0.00
2013-12-26,24.3,18.6,12.4,24.3,18.6,12.4,100,100,100,19.99,19.99,10,3,18,0.00
2013-12-27,26.1,23.6,20.5,26.1,23.6,20.5,100,100,100,19.99,19.99,20,7,27,0.00
2013-12-28,35.7,30.7,23.1,35.7,30.7,23.1,100,100,100,19.99,19.99,19,6,35,0.00
2013-12-29,34.5,32.0,30.2,34.5,32.0,30.2,100,100,100,19.99,19.99,2,0,9,0.00
2013-12-30,33.2,21.0,4.9,33.2,21.0,4.9,100,100,100,19.99,19.99,27,7,41,0.00
2013-12-31,15.0,7.2,-1.4,15.0,7.2,-1.4,100,100,100,19.99,19.99,15,3,32,0.00
2014-1-1,13.6,10.1,6.8,13.6,10.1,6.8,100,100,100,19.99,19.99,18,6,28,0.00
2014-1-2,6.2,3.4,0.4,6.2,3.4,0.4,100,100,100,19.99,19.99,5,1,11,0.00